Mattawana, Pennsylvania
Current Conditions -  °F | °C
As of 12:53 PM on Friday 21 Nov 2014 (Local Time) from KUNV Reporting Station
Broken Clouds Broken Clouds  
Wind Chill: 19°   Ceiling: 4200
Heat Index: 30°   Visibility: 10mi
Dew Point:   Wind: 16mph
Humidity: 40%   Direction: 270°W
Pressure: 30.37"   Gusts: 22mph
Location:  40.5°N, 77.73°W
Report Text: KUNV 211753Z 27014G19KT 10SM BKN042 M01/M13 A3037
Loading
Personal Weather Stations






























Interactive Weather Map New forecast layout! Learn more

10-Day Weather Forecast

Advertisements
Track Severe Weather on mobile